Time;durP1;ratioP1;P1;durP2;ratioP2;P2;SDS_P1;SDS_P2;PMS_P1;PMS_P2;Temp;Humidity;BMP_temperature;BMP_pressure;BME280_temperature;BME280_humidity;BME280_pressure;Samples;Min_cycle;Max_cycle;Signal;HPM_P1;HPM_P2
2022/01/02 00:02:03;;;;;;;15.60;12.70;;;;;;;;;;5067224;28;20200;-90
2022/01/02 00:04:42;;;;;;;15.97;13.20;;;;;;;;;;5074856;28;20239;-89
2022/01/02 00:07:10;;;;;;;14.93;12.57;;;;;;;;;;5075139;28;20290;-90
2022/01/02 00:09:42;;;;;;;16.57;12.27;;;;;;;;;;5074456;28;20266;-90
2022/01/02 00:12:14;;;;;;;14.80;12.13;;;;;;;;;;5072852;28;20208;-90
2022/01/02 00:14:52;;;;;;;13.60;11.60;;;;;;;;;;5074709;28;20221;-91
2022/01/02 00:17:23;;;;;;;13.23;11.47;;;;;;;;;;5074835;28;20274;-90
2022/01/02 00:20:08;;;;;;;12.67;11.37;;;;;;;;;;5075021;28;20204;-91
2022/01/02 00:22:41;;;;;;;14.83;11.73;;;;;;;;;;5069236;28;20220;-92
2022/01/02 00:25:23;;;;;;;13.00;10.90;;;;;;;;;;5076068;28;20251;-91
2022/01/02 00:27:56;;;;;;;13.53;10.73;;;;;;;;;;5075426;28;20207;-91
2022/01/02 00:30:26;;;;;;;13.17;10.70;;;;;;;;;;5074583;28;20574;-91
2022/01/02 00:33:02;;;;;;;13.80;11.70;;;;;;;;;;5074330;28;20196;-90
2022/01/02 00:35:30;;;;;;;16.17;11.27;;;;;;;;;;5075143;28;20255;-91
2022/01/02 00:38:00;;;;;;;13.00;10.93;;;;;;;;;;5071634;28;20220;-91
2022/01/02 00:40:28;;;;;;;13.73;11.10;;;;;;;;;;5074917;28;20235;-90
2022/01/02 00:43:03;;;;;;;13.30;11.03;;;;;;;;;;5076898;28;20204;-91
2022/01/02 00:45:34;;;;;;;13.63;11.57;;;;;;;;;;5090937;28;20250;-92
2022/01/02 00:48:16;;;;;;;12.10;10.43;;;;;;;;;;5096300;28;20199;-92
2022/01/02 00:50:45;;;;;;;13.37;10.33;;;;;;;;;;5087472;28;20204;-90
2022/01/02 00:53:15;;;;;;;13.77;11.60;;;;;;;;;;5086706;28;20200;-90
2022/01/02 00:55:44;;;;;;;14.23;11.10;;;;;;;;;;5075829;28;20212;-91
2022/01/02 00:58:13;;;;;;;13.23;11.17;;;;;;;;;;5074975;28;20247;-91
2022/01/02 01:00:46;;;;;;;15.03;13.00;;;;;;;;;;5076027;28;20193;-90
2022/01/02 01:03:22;;;;;;;12.63;11.27;;;;;;;;;;5080540;28;20212;-90
2022/01/02 01:05:53;;;;;;;14.63;11.77;;;;;;;;;;5080364;28;20204;-90
2022/01/02 01:08:26;;;;;;;14.67;11.47;;;;;;;;;;5079944;28;20197;-91
2022/01/02 01:10:54;;;;;;;13.77;11.57;;;;;;;;;;5091744;28;20208;-91
2022/01/02 01:13:27;;;;;;;14.20;11.67;;;;;;;;;;5087335;28;20181;-89
2022/01/02 01:15:57;;;;;;;15.53;11.50;;;;;;;;;;5076332;28;20232;-90
2022/01/02 01:18:37;;;;;;;14.80;10.87;;;;;;;;;;5073833;28;20235;-90
2022/01/02 01:21:17;;;;;;;13.77;11.83;;;;;;;;;;5073675;28;20211;-90
2022/01/02 01:23:44;;;;;;;13.37;11.30;;;;;;;;;;5074722;28;20216;-91
2022/01/02 01:26:15;;;;;;;12.97;10.73;;;;;;;;;;5073610;28;20205;-90
2022/01/02 01:28:43;;;;;;;14.63;10.60;;;;;;;;;;5073885;28;20251;-91
2022/01/02 01:31:11;;;;;;;13.97;11.80;;;;;;;;;;5073519;28;20196;-90
2022/01/02 01:33:43;;;;;;;13.80;10.60;;;;;;;;;;5075115;28;20283;-89
2022/01/02 01:36:13;;;;;;;14.00;11.30;;;;;;;;;;5075030;28;20243;-91
2022/01/02 01:38:42;;;;;;;13.23;10.43;;;;;;;;;;5073874;28;20224;-90
2022/01/02 01:41:11;;;;;;;11.20;9.97;;;;;;;;;;5054003;28;20220;-91
2022/01/02 01:43:51;;;;;;;13.10;11.07;;;;;;;;;;5073813;28;20208;-90
2022/01/02 07:49:04;;;;;;;8.40;7.50;;;;;;;;;;4989646;23;20306;-86
2022/01/02 07:51:32;;;;;;;8.27;7.20;;;;;;;;;;4972494;28;20197;-90
2022/01/02 07:54:00;;;;;;;8.97;7.57;;;;;;;;;;4969251;28;20303;-88
2022/01/02 07:56:27;;;;;;;8.33;7.53;;;;;;;;;;4970268;28;20211;-88
2022/01/02 07:58:55;;;;;;;8.20;7.40;;;;;;;;;;4973979;28;20377;-89
2022/01/02 08:01:23;;;;;;;8.87;7.97;;;;;;;;;;4981402;28;20204;-88
2022/01/02 08:03:50;;;;;;;8.30;7.30;;;;;;;;;;4983686;28;20227;-88
2022/01/02 08:09:23;;;;;;;8.30;6.97;;;;;;;;;;5260484;23;20242;-90
2022/01/02 08:11:50;;;;;;;8.00;7.20;;;;;;;;;;4994016;28;20211;-89
2022/01/02 08:14:21;;;;;;;8.47;7.67;;;;;;;;;;4995180;28;20207;-88
2022/01/02 08:16:49;;;;;;;7.80;7.00;;;;;;;;;;4997162;28;20199;-90
2022/01/02 08:19:18;;;;;;;7.63;6.77;;;;;;;;;;5002944;28;20231;-90
2022/01/02 08:21:45;;;;;;;7.93;7.23;;;;;;;;;;4994349;28;20199;-89
2022/01/02 08:24:20;;;;;;;8.17;7.30;;;;;;;;;;4995808;28;20290;-90
2022/01/02 08:26:49;;;;;;;8.23;7.43;;;;;;;;;;4991759;28;20206;-89
2022/01/02 08:29:17;;;;;;;8.07;7.00;;;;;;;;;;4994514;28;20242;-88
2022/01/02 08:31:44;;;;;;;8.20;7.50;;;;;;;;;;4994926;28;20211;-89
2022/01/02 08:34:11;;;;;;;8.87;7.03;;;;;;;;;;4994795;28;20304;-89
2022/01/02 08:36:39;;;;;;;9.10;7.83;;;;;;;;;;4995441;28;20262;-89
2022/01/02 08:39:06;;;;;;;7.90;7.13;;;;;;;;;;4994466;28;20274;-89
2022/01/02 08:41:34;;;;;;;8.13;7.33;;;;;;;;;;4993458;28;20238;-89
2022/01/02 08:44:08;;;;;;;7.47;6.73;;;;;;;;;;4992482;28;20203;-90
2022/01/02 08:46:35;;;;;;;7.63;6.80;;;;;;;;;;4992768;28;20204;-86
2022/01/02 08:49:02;;;;;;;7.60;6.90;;;;;;;;;;4988047;28;20223;-88
2022/01/02 08:51:30;;;;;;;8.27;7.23;;;;;;;;;;4987398;28;20282;-88
2022/01/02 08:53:57;;;;;;;8.10;7.30;;;;;;;;;;4981470;28;20302;-88
2022/01/02 08:56:25;;;;;;;7.03;6.37;;;;;;;;;;4993599;28;20207;-89
2022/01/02 08:58:52;;;;;;;6.47;5.87;;;;;;;;;;4994837;28;20242;-88
2022/01/02 09:01:21;;;;;;;7.20;6.10;;;;;;;;;;4993604;28;20199;-89
2022/01/02 09:03:48;;;;;;;7.20;6.50;;;;;;;;;;4994366;28;20301;-88
2022/01/02 09:06:15;;;;;;;7.43;5.83;;;;;;;;;;4993190;28;20294;-88
2022/01/02 09:08:43;;;;;;;7.40;6.70;;;;;;;;;;4994942;28;20239;-87
2022/01/02 09:11:10;;;;;;;6.90;6.20;;;;;;;;;;4992131;28;20302;-88
2022/01/02 09:13:37;;;;;;;7.43;6.73;;;;;;;;;;4995853;28;20251;-88
2022/01/02 09:16:05;;;;;;;7.60;6.90;;;;;;;;;;4993009;28;20211;-88
2022/01/02 09:18:34;;;;;;;7.03;6.43;;;;;;;;;;4993380;28;20274;-88
2022/01/02 09:21:02;;;;;;;6.60;6.03;;;;;;;;;;4993377;28;20211;-89
2022/01/02 09:23:29;;;;;;;6.67;6.03;;;;;;;;;;4993490;28;20235;-88
2022/01/02 09:25:56;;;;;;;6.30;5.70;;;;;;;;;;4993947;28;20283;-85
2022/01/02 09:28:24;;;;;;;5.60;5.10;;;;;;;;;;4994415;28;20242;-85
2022/01/02 09:30:51;;;;;;;6.20;5.60;;;;;;;;;;4993081;28;20302;-87
2022/01/02 09:33:18;;;;;;;5.80;5.20;;;;;;;;;;4994121;28;20231;-86
2022/01/02 09:35:47;;;;;;;6.70;6.00;;;;;;;;;;4993986;28;20243;-86
2022/01/02 09:38:14;;;;;;;7.13;6.43;;;;;;;;;;4994063;28;20215;-86
2022/01/02 09:40:48;;;;;;;6.97;6.20;;;;;;;;;;4993579;28;20327;-85
2022/01/02 09:43:19;;;;;;;6.83;6.23;;;;;;;;;;4988304;28;20214;-85
2022/01/02 09:45:46;;;;;;;7.60;6.63;;;;;;;;;;4988105;28;20298;-87
2022/01/02 09:48:14;;;;;;;6.47;5.83;;;;;;;;;;4999902;28;20230;-87
2022/01/02 09:50:41;;;;;;;7.17;6.47;;;;;;;;;;4994067;28;20701;-85
2022/01/02 09:53:10;;;;;;;6.60;6.00;;;;;;;;;;4981964;28;20302;-86
2022/01/02 09:55:38;;;;;;;9.90;6.30;;;;;;;;;;4989636;28;20207;-87
2022/01/02 09:58:10;;;;;;;7.00;6.40;;;;;;;;;;4999821;28;20247;-86
2022/01/02 10:00:38;;;;;;;7.17;6.10;;;;;;;;;;4993863;28;20253;-85
2022/01/02 10:03:07;;;;;;;6.83;6.13;;;;;;;;;;4994273;28;20207;-88
2022/01/02 10:05:50;;;;;;;7.43;6.67;;;;;;;;;;4993772;28;20301;-87
2022/01/02 10:08:22;;;;;;;7.37;6.67;;;;;;;;;;4993282;28;20235;-87
2022/01/02 10:10:49;;;;;;;6.83;6.20;;;;;;;;;;4992322;28;20254;-87
2022/01/02 10:13:16;;;;;;;6.87;6.27;;;;;;;;;;4993395;28;20682;-88
2022/01/02 10:15:46;;;;;;;8.17;7.37;;;;;;;;;;4993757;28;20218;-87
2022/01/02 10:18:13;;;;;;;7.00;6.40;;;;;;;;;;4995480;28;20289;-88
2022/01/02 10:20:42;;;;;;;7.30;6.60;;;;;;;;;;4992682;28;20238;-86
2022/01/02 10:23:13;;;;;;;6.73;5.83;;;;;;;;;;4993257;28;20258;-86
2022/01/02 10:25:43;;;;;;;6.57;5.83;;;;;;;;;;4993333;28;20241;-87
2022/01/02 10:28:22;;;;;;;7.30;6.03;;;;;;;;;;4992904;28;20717;-86
2022/01/02 10:30:51;;;;;;;5.97;5.47;;;;;;;;;;4992998;28;20210;-87
2022/01/02 10:33:21;;;;;;;6.50;5.90;;;;;;;;;;4993959;28;20215;-87
2022/01/02 10:36:10;;;;;;;7.40;6.70;;;;;;;;;;4995654;28;20262;-92
2022/01/02 10:41:41;;;;;;;7.30;6.07;;;;;;;;;;5045953;23;20337;-91
2022/01/02 10:44:31;;;;;;;6.80;6.20;;;;;;;;;;4993949;28;20219;-89
2022/01/02 10:53:18;;;;;;;6.93;6.00;;;;;;;;;;4986831;28;20210;-89
2022/01/02 10:55:46;;;;;;;7.77;6.53;;;;;;;;;;4981132;28;20287;-89
2022/01/02 10:58:14;;;;;;;6.80;5.93;;;;;;;;;;4986592;28;20273;-88
2022/01/02 11:00:42;;;;;;;6.60;5.90;;;;;;;;;;4985979;28;20219;-89
2022/01/02 11:03:13;;;;;;;6.77;5.77;;;;;;;;;;4987209;28;20272;-88
2022/01/02 11:05:41;;;;;;;6.43;5.77;;;;;;;;;;4982756;28;20214;-88
2022/01/02 11:08:09;;;;;;;6.07;5.47;;;;;;;;;;4993511;28;20223;-88
2022/01/02 11:10:36;;;;;;;7.13;6.43;;;;;;;;;;4982957;28;20218;-87
2022/01/02 11:13:06;;;;;;;7.17;6.07;;;;;;;;;;4984326;28;20214;-88
2022/01/02 11:15:34;;;;;;;7.87;7.07;;;;;;;;;;4986786;28;20239;-89
2022/01/02 11:18:08;;;;;;;7.13;6.30;;;;;;;;;;4984525;28;20247;-90
2022/01/02 11:20:56;;;;;;;6.67;5.97;;;;;;;;;;4978582;28;20223;-89
2022/01/02 11:23:42;;;;;;;6.93;6.23;;;;;;;;;;4961441;28;20208;-89
2022/01/02 11:26:15;;;;;;;6.90;6.20;;;;;;;;;;4943836;29;20217;-86
2022/01/02 11:34:44;;;;;;;6.50;5.90;;;;;;;;;;4930106;29;20208;-87
2022/01/02 11:37:20;;;;;;;6.83;6.13;;;;;;;;;;4931801;29;20206;-86
2022/01/02 11:40:09;;;;;;;6.93;6.23;;;;;;;;;;4933493;29;20236;-86
2022/01/02 11:42:59;;;;;;;7.40;6.70;;;;;;;;;;4934968;29;20213;-86
2022/01/02 11:46:10;;;;;;;6.33;5.73;;;;;;;;;;4936403;29;20213;-87
2022/01/02 11:48:45;;;;;;;7.30;6.60;;;;;;;;;;4882160;29;20245;-87
2022/01/02 11:51:33;;;;;;;7.70;6.77;;;;;;;;;;4931937;29;20220;-85
2022/01/02 11:54:10;;;;;;;6.90;6.20;;;;;;;;;;4930157;29;20209;-84
2022/01/02 11:56:45;;;;;;;6.33;5.53;;;;;;;;;;4955419;28;20225;-89
2022/01/02 12:05:45;;;;;;;1.70;1.60;;;;;;;;;;4898538;29;20214;-93
2022/01/02 12:08:31;;;;;;;1.93;1.80;;;;;;;;;;4988251;23;20317;-85
2022/01/02 12:21:09;;;;;;;3.50;1.30;;;;;;;;;;4883492;29;20368;-87
2022/01/02 12:24:17;;;;;;;1.60;1.50;;;;;;;;;;4927153;28;20323;-88
2022/01/02 12:38:49;;;;;;;2.33;2.08;;;;;;;;;;4984626;28;20314;-86
2022/01/02 12:56:14;;;;;;;2.00;1.80;;;;;;;;;;5035398;28;20245;-84
2022/01/02 13:33:57;;;;;;;2.50;1.65;;;;;;;;;;4894781;29;20268;-82
2022/01/02 13:36:26;;;;;;;1.90;1.70;;;;;;;;;;4949330;28;20236;-82
2022/01/02 13:38:53;;;;;;;2.13;1.70;;;;;;;;;;4945617;28;20224;-84
2022/01/02 13:41:21;;;;;;;2.00;1.85;;;;;;;;;;4947698;28;20225;-83
2022/01/02 13:43:51;;;;;;;1.75;1.60;;;;;;;;;;4961122;28;20265;-83
2022/01/02 13:49:42;;;;;;;1.95;1.63;;;;;;;;;;4996075;23;20325;-92
2022/01/02 13:52:10;;;;;;;1.67;1.58;;;;;;;;;;4997588;28;20223;-86
2022/01/02 13:54:41;;;;;;;1.55;1.45;;;;;;;;;;5001743;28;20230;-87
2022/01/02 13:57:10;;;;;;;2.05;1.50;;;;;;;;;;5000850;28;20206;-86
2022/01/02 13:59:37;;;;;;;2.67;1.70;;;;;;;;;;5003478;28;20273;-87
2022/01/02 14:02:05;;;;;;;1.92;1.70;;;;;;;;;;5009309;28;20203;-87
2022/01/02 14:04:48;;;;;;;2.47;1.90;;;;;;;;;;5000738;28;20254;-87
2022/01/02 14:07:19;;;;;;;2.10;1.70;;;;;;;;;;4996193;28;20260;-85
2022/01/02 14:09:50;;;;;;;2.22;1.75;;;;;;;;;;4998940;28;20242;-87
2022/01/02 14:12:20;;;;;;;2.35;1.80;;;;;;;;;;4999189;28;20290;-87
2022/01/02 14:14:50;;;;;;;1.80;1.70;;;;;;;;;;5004022;28;20203;-87
2022/01/02 14:17:31;;;;;;;1.75;1.63;;;;;;;;;;5004338;28;20214;-87
2022/01/02 14:20:11;;;;;;;2.75;1.73;;;;;;;;;;5003192;28;20233;-93
2022/01/02 14:22:40;;;;;;;2.78;1.73;;;;;;;;;;4988552;28;20203;-91
2022/01/02 14:25:08;;;;;;;3.30;1.90;;;;;;;;;;5000460;28;20211;-87
2022/01/02 14:30:20;;;;;;;3.33;1.80;;;;;;;;;;4996674;28;20288;-87
2022/01/02 14:32:47;;;;;;;2.00;1.77;;;;;;;;;;5003507;28;20313;-87
2022/01/02 14:35:16;;;;;;;2.90;1.70;;;;;;;;;;4996287;28;20237;-86
2022/01/02 14:37:47;;;;;;;1.75;1.60;;;;;;;;;;4999649;28;20200;-86
2022/01/02 14:40:15;;;;;;;2.53;1.70;;;;;;;;;;5004239;28;20277;-86
2022/01/02 14:42:49;;;;;;;2.37;1.70;;;;;;;;;;5010254;28;20285;-87
2022/01/02 14:45:20;;;;;;;1.77;1.67;;;;;;;;;;5005428;28;20270;-86
2022/01/02 14:47:47;;;;;;;3.20;2.00;;;;;;;;;;5003043;28;20222;-85
2022/01/02 14:50:17;;;;;;;4.53;2.00;;;;;;;;;;5002694;28;20222;-85
2022/01/02 14:52:47;;;;;;;2.13;1.90;;;;;;;;;;5007102;28;20254;-85
2022/01/02 14:55:18;;;;;;;2.93;1.90;;;;;;;;;;5010809;28;20202;-85
2022/01/02 14:57:48;;;;;;;2.00;1.80;;;;;;;;;;5007973;28;20256;-86
2022/01/02 15:00:17;;;;;;;1.97;1.67;;;;;;;;;;5007571;28;20314;-85
2022/01/02 15:02:48;;;;;;;3.37;1.80;;;;;;;;;;5004294;28;20207;-85
2022/01/02 15:05:16;;;;;;;3.37;2.07;;;;;;;;;;5008362;28;20199;-85
2022/01/02 15:07:44;;;;;;;3.13;2.20;;;;;;;;;;5004196;28;20245;-85
2022/01/02 15:10:14;;;;;;;2.93;2.00;;;;;;;;;;5007837;28;20204;-85
2022/01/02 15:12:44;;;;;;;3.17;2.27;;;;;;;;;;5005275;28;20203;-85
2022/01/02 15:15:15;;;;;;;2.60;1.93;;;;;;;;;;5005475;28;20207;-85
2022/01/02 15:17:42;;;;;;;2.23;1.90;;;;;;;;;;5005256;28;20281;-86
2022/01/02 15:20:10;;;;;;;2.33;2.07;;;;;;;;;;5007658;28;20243;-88
2022/01/02 15:22:43;;;;;;;4.40;3.07;;;;;;;;;;4996899;28;20229;-94
2022/01/02 15:25:10;;;;;;;3.77;3.20;;;;;;;;;;4996540;28;20207;-86
2022/01/02 15:39:30;;;;;;;6.03;3.70;;;;;;;;;;5014249;28;20227;-88
2022/01/02 15:42:04;;;;;;;5.33;3.90;;;;;;;;;;5016022;28;20237;-87
2022/01/02 15:44:31;;;;;;;4.50;4.10;;;;;;;;;;5015003;28;20246;-86
2022/01/02 15:46:58;;;;;;;4.43;4.03;;;;;;;;;;5013008;28;20214;-87
2022/01/02 15:49:26;;;;;;;4.87;4.37;;;;;;;;;;5015446;28;20222;-86
2022/01/02 15:51:54;;;;;;;4.10;3.70;;;;;;;;;;5010923;28;20241;-89
2022/01/02 15:54:22;;;;;;;5.60;3.77;;;;;;;;;;5015993;28;20261;-87
2022/01/02 15:56:49;;;;;;;5.50;5.00;;;;;;;;;;5015910;28;20217;-86
2022/01/02 15:59:19;;;;;;;5.07;4.57;;;;;;;;;;5015306;28;20612;-86
2022/01/02 16:01:48;;;;;;;4.90;4.40;;;;;;;;;;5015125;28;20223;-85
2022/01/02 16:04:15;;;;;;;5.50;5.00;;;;;;;;;;5014733;28;20218;-85
2022/01/02 16:06:42;;;;;;;4.80;4.13;;;;;;;;;;5014994;28;20191;-86
2022/01/02 16:09:11;;;;;;;4.97;4.20;;;;;;;;;;5024868;28;20226;-83
2022/01/02 16:11:38;;;;;;;5.17;3.77;;;;;;;;;;5016794;28;20230;-83
2022/01/02 16:14:05;;;;;;;6.27;4.70;;;;;;;;;;5017743;28;20209;-82
2022/01/02 16:16:33;;;;;;;4.17;3.77;;;;;;;;;;5017753;28;20277;-83
2022/01/02 16:19:00;;;;;;;5.47;4.43;;;;;;;;;;5018192;28;20257;-82
2022/01/02 16:21:27;;;;;;;5.97;4.40;;;;;;;;;;5016811;28;20265;-83
2022/01/02 16:23:56;;;;;;;4.90;4.40;;;;;;;;;;5015245;28;20233;-90
2022/01/02 16:29:40;;;;;;;6.83;5.63;;;;;;;;;;5003387;28;20245;-90
2022/01/02 16:35:10;;;;;;;6.30;4.90;;;;;;;;;;4961240;28;20255;-86
2022/01/02 16:37:39;;;;;;;6.40;5.50;;;;;;;;;;4977568;28;20227;-85
2022/01/02 16:40:07;;;;;;;6.17;5.27;;;;;;;;;;4997535;28;20230;-86
2022/01/02 16:42:34;;;;;;;5.87;5.27;;;;;;;;;;4972778;28;20255;-86
2022/01/02 16:45:03;;;;;;;5.93;4.90;;;;;;;;;;4962719;28;20213;-86
2022/01/02 16:47:31;;;;;;;6.77;5.43;;;;;;;;;;4968923;28;20295;-86
2022/01/02 16:49:58;;;;;;;6.97;5.50;;;;;;;;;;4974078;28;20284;-86
2022/01/02 16:52:26;;;;;;;6.27;5.20;;;;;;;;;;4972587;28;20289;-87
2022/01/02 16:54:53;;;;;;;6.67;5.90;;;;;;;;;;4972033;28;20208;-86
2022/01/02 16:57:20;;;;;;;6.87;5.73;;;;;;;;;;4974106;28;20238;-86
2022/01/02 16:59:48;;;;;;;5.73;5.13;;;;;;;;;;4974726;28;20236;-86
2022/01/02 17:02:17;;;;;;;8.40;7.33;;;;;;;;;;4973589;28;20255;-86
2022/01/02 17:04:47;;;;;;;10.60;8.13;;;;;;;;;;4970520;28;20243;-91
2022/01/02 17:07:15;;;;;;;9.43;7.63;;;;;;;;;;4969925;28;20240;-87
2022/01/02 17:09:42;;;;;;;9.50;6.90;;;;;;;;;;4968688;28;20220;-88
2022/01/02 17:12:09;;;;;;;8.37;7.07;;;;;;;;;;4983291;28;20198;-87
2022/01/02 17:14:37;;;;;;;9.80;7.27;;;;;;;;;;5010862;28;20222;-87
2022/01/02 17:17:04;;;;;;;7.27;6.23;;;;;;;;;;5003756;28;20297;-87
2022/01/02 17:19:33;;;;;;;7.97;6.50;;;;;;;;;;5012440;28;20310;-88
2022/01/02 17:22:00;;;;;;;7.27;6.57;;;;;;;;;;5012382;28;20254;-88
2022/01/02 17:24:28;;;;;;;7.93;6.37;;;;;;;;;;5012188;28;20281;-88
2022/01/02 17:26:55;;;;;;;7.03;5.73;;;;;;;;;;5013518;28;20217;-89
2022/01/02 17:29:23;;;;;;;7.27;6.37;;;;;;;;;;5008801;28;20285;-88
2022/01/02 17:32:01;;;;;;;8.10;6.30;;;;;;;;;;5013602;28;20203;-88
2022/01/02 17:34:30;;;;;;;7.37;6.63;;;;;;;;;;5014712;28;20209;-89
2022/01/02 17:36:59;;;;;;;6.67;5.90;;;;;;;;;;5011952;28;20202;-89
2022/01/02 17:39:27;;;;;;;8.20;7.17;;;;;;;;;;5010971;28;20218;-88
2022/01/02 17:41:57;;;;;;;9.93;7.47;;;;;;;;;;5013262;28;20711;-89
2022/01/02 17:44:24;;;;;;;10.10;7.50;;;;;;;;;;5011334;28;20232;-89
2022/01/02 17:46:52;;;;;;;6.77;5.60;;;;;;;;;;5013184;28;20199;-89
2022/01/02 17:49:20;;;;;;;6.13;5.50;;;;;;;;;;5013495;28;20230;-89
2022/01/02 17:51:48;;;;;;;6.90;5.77;;;;;;;;;;5013566;28;20249;-90
2022/01/02 17:54:17;;;;;;;7.33;6.13;;;;;;;;;;5007773;28;20928;-87
2022/01/02 17:56:44;;;;;;;8.47;7.57;;;;;;;;;;5014325;28;20268;-86
2022/01/02 17:59:12;;;;;;;9.30;7.63;;;;;;;;;;5014205;28;20284;-87
2022/01/02 18:01:42;;;;;;;9.43;7.33;;;;;;;;;;5013820;28;20263;-86
2022/01/02 18:04:21;;;;;;;11.87;8.20;;;;;;;;;;5015320;28;20211;-89
2022/01/02 18:06:49;;;;;;;12.67;8.80;;;;;;;;;;5013269;28;20222;-89
2022/01/02 18:09:22;;;;;;;11.00;8.20;;;;;;;;;;5009326;28;20234;-89
2022/01/02 18:11:50;;;;;;;9.17;8.10;;;;;;;;;;5007852;28;20212;-89
2022/01/02 18:14:17;;;;;;;10.43;7.73;;;;;;;;;;5010351;28;20202;-87
2022/01/02 18:16:45;;;;;;;11.17;8.50;;;;;;;;;;5011725;28;20257;-86
2022/01/02 18:19:12;;;;;;;9.87;8.53;;;;;;;;;;5012654;28;20238;-86
2022/01/02 18:21:43;;;;;;;13.00;9.67;;;;;;;;;;5000584;28;20238;-84
2022/01/02 18:24:14;;;;;;;11.40;9.40;;;;;;;;;;5014672;28;20206;-87
2022/01/02 18:26:43;;;;;;;11.23;9.13;;;;;;;;;;5016141;28;20210;-86
2022/01/02 18:29:11;;;;;;;15.47;11.57;;;;;;;;;;5015345;28;20242;-86
2022/01/02 18:31:38;;;;;;;12.93;9.30;;;;;;;;;;5015321;28;20716;-86
2022/01/02 18:34:05;;;;;;;11.40;9.40;;;;;;;;;;5015380;28;20211;-86
2022/01/02 18:36:33;;;;;;;12.23;8.70;;;;;;;;;;5014721;28;20233;-87
2022/01/02 18:39:00;;;;;;;9.67;7.97;;;;;;;;;;5015365;28;20250;-86
2022/01/02 18:41:30;;;;;;;9.00;7.63;;;;;;;;;;5014642;28;20210;-87
2022/01/02 18:43:59;;;;;;;8.97;6.67;;;;;;;;;;5013607;28;20241;-86
2022/01/02 18:46:26;;;;;;;10.43;7.60;;;;;;;;;;5013482;28;20249;-86
2022/01/02 18:48:54;;;;;;;8.03;6.93;;;;;;;;;;5013058;28;20262;-86
2022/01/02 18:51:21;;;;;;;7.23;6.33;;;;;;;;;;5014127;28;20203;-86
2022/01/02 18:53:55;;;;;;;9.10;6.23;;;;;;;;;;5014510;28;20226;-90
2022/01/02 18:56:23;;;;;;;10.93;7.67;;;;;;;;;;5010838;28;20213;-86
2022/01/02 18:59:48;;;;;;;8.80;6.77;;;;;;;;;;5054795;27;20604;-85
2022/01/02 19:02:18;;;;;;;11.30;9.13;;;;;;;;;;5051264;28;20236;-85
2022/01/02 19:04:46;;;;;;;13.50;10.13;;;;;;;;;;5051707;28;20212;-84
2022/01/02 19:07:13;;;;;;;13.30;9.23;;;;;;;;;;5052207;28;20213;-86
2022/01/02 19:09:44;;;;;;;12.40;9.43;;;;;;;;;;5053658;28;20340;-85
2022/01/02 19:12:12;;;;;;;13.20;10.43;;;;;;;;;;5041227;28;20219;-85
2022/01/02 19:14:45;;;;;;;11.23;8.90;;;;;;;;;;5047328;28;20210;-88
2022/01/02 19:17:16;;;;;;;11.50;9.57;;;;;;;;;;5066866;28;20227;-88
2022/01/02 19:19:44;;;;;;;11.97;9.97;;;;;;;;;;5049904;28;20278;-88
2022/01/02 19:22:21;;;;;;;11.30;9.97;;;;;;;;;;5040407;28;20234;-89
2022/01/02 19:24:55;;;;;;;11.47;9.27;;;;;;;;;;5044393;28;20201;-88
2022/01/02 19:27:22;;;;;;;9.23;8.33;;;;;;;;;;5049643;28;20220;-86
2022/01/02 19:29:50;;;;;;;10.37;8.67;;;;;;;;;;5051697;28;20248;-85
2022/01/02 19:32:19;;;;;;;12.17;10.00;;;;;;;;;;5049669;28;20205;-86
2022/01/02 19:34:49;;;;;;;15.57;11.83;;;;;;;;;;5045091;28;20255;-86
2022/01/02 19:37:16;;;;;;;11.73;9.37;;;;;;;;;;5049706;28;20690;-86
2022/01/02 19:39:44;;;;;;;12.73;10.97;;;;;;;;;;5045232;28;20719;-87
2022/01/02 19:42:11;;;;;;;16.47;14.77;;;;;;;;;;5042835;28;20209;-86
2022/01/02 19:44:39;;;;;;;19.93;17.83;;;;;;;;;;5045601;28;20641;-86
2022/01/02 19:47:07;;;;;;;15.23;13.63;;;;;;;;;;5039406;28;20201;-86
2022/01/02 19:50:02;;;;;;;14.97;13.30;;;;;;;;;;5217851;23;20260;-84
2022/01/02 19:52:41;;;;;;;;;;;;;;;;;;;;;
2022/01/02 20:40:36;;;;;;;13.37;12.13;;;;;;;;;;4739599;30;20253;-86
2022/01/02 20:46:32;;;;;;;15.30;13.17;;;;;;;;;;4792362;29;20219;-83
2022/01/02 20:52:15;;;;;;;11.43;10.23;;;;;;;;;;4782224;30;20219;-87
2022/01/02 20:54:58;;;;;;;;;;;;;;;;;;;;;
2022/01/02 20:57:54;;;;;;;9.17;7.97;;;;;;;;;;4781299;29;20219;-87
2022/01/02 21:07:07;;;;;;;;;;;;;;;;;;;;;
2022/01/02 21:09:44;;;;;;;11.10;9.17;;;;;;;;;;4827061;29;20240;-86
2022/01/02 21:12:19;;;;;;;12.47;11.27;;;;;;;;;;4948343;28;20282;-84
2022/01/02 21:14:57;;;;;;;12.90;11.60;;;;;;;;;;5004036;28;20209;-83
2022/01/02 21:17:24;;;;;;;6.13;5.30;;;;;;;;;;5020794;28;20217;-81
2022/01/02 21:20:27;;;;;;;3.30;2.77;;;;;;;;;;5020906;28;20241;-86
2022/01/02 21:23:01;;;;;;;5.03;1.80;;;;;;;;;;4950995;29;20219;-84
2022/01/02 21:28:33;;;;;;;3.13;2.07;;;;;;;;;;4952143;29;20213;-84
2022/01/02 21:31:08;;;;;;;3.33;1.73;;;;;;;;;;4950246;29;20211;-83
2022/01/02 21:33:38;;;;;;;2.37;1.80;;;;;;;;;;4957299;29;20204;-85
2022/01/02 21:36:13;;;;;;;3.30;1.80;;;;;;;;;;4956713;29;20252;-83
2022/01/02 21:41:33;;;;;;;3.20;1.97;;;;;;;;;;4955564;29;20241;-85
2022/01/02 21:44:03;;;;;;;3.33;2.00;;;;;;;;;;4959479;29;20219;-85
2022/01/02 21:46:44;;;;;;;3.17;1.73;;;;;;;;;;4958493;29;20224;-83
2022/01/02 21:49:18;;;;;;;2.83;1.57;;;;;;;;;;4959088;29;20231;-84
2022/01/02 21:51:46;;;;;;;3.40;1.63;;;;;;;;;;4957620;29;20197;-85
2022/01/02 21:54:25;;;;;;;3.10;1.70;;;;;;;;;;4967192;28;20217;-85
2022/01/02 21:57:00;;;;;;;4.23;1.70;;;;;;;;;;4966601;28;20280;-85
2022/01/02 21:59:34;;;;;;;2.53;1.87;;;;;;;;;;4984119;28;20317;-84
2022/01/02 22:05:06;;;;;;;3.27;1.63;;;;;;;;;;5008245;28;20244;-85
2022/01/02 22:07:39;;;;;;;3.10;1.60;;;;;;;;;;5016583;28;20222;-84
2022/01/02 22:10:09;;;;;;;2.63;1.60;;;;;;;;;;5017525;28;20215;-84
2022/01/02 22:12:41;;;;;;;2.40;1.60;;;;;;;;;;5014792;28;20206;-85
2022/01/02 22:15:12;;;;;;;2.77;1.53;;;;;;;;;;5014847;28;20200;-85
2022/01/02 22:17:41;;;;;;;2.00;1.63;;;;;;;;;;5020967;28;20218;-85
2022/01/02 22:20:19;;;;;;;2.77;1.93;;;;;;;;;;5020178;28;20234;-84
2022/01/02 22:22:46;;;;;;;2.50;1.80;;;;;;;;;;5019131;28;20206;-85
2022/01/02 22:25:21;;;;;;;2.40;1.60;;;;;;;;;;5019044;28;20202;-83
2022/01/02 22:28:03;;;;;;;3.03;1.83;;;;;;;;;;5015435;28;20356;-84
2022/01/02 22:30:33;;;;;;;2.87;1.70;;;;;;;;;;5018023;28;20230;-81
2022/01/02 22:33:03;;;;;;;1.80;1.50;;;;;;;;;;5011667;28;20210;-86
2022/01/02 22:35:51;;;;;;;3.30;1.77;;;;;;;;;;5016040;28;20199;-84
2022/01/02 22:38:19;;;;;;;3.13;2.03;;;;;;;;;;5013251;28;20266;-84
2022/01/02 22:40:47;;;;;;;2.77;1.77;;;;;;;;;;5015093;28;20202;-81
2022/01/02 22:43:15;;;;;;;2.70;1.63;;;;;;;;;;5011516;28;20293;-81
2022/01/02 22:45:47;;;;;;;2.60;2.07;;;;;;;;;;5017271;28;20229;-82
2022/01/02 22:48:26;;;;;;;1.90;1.70;;;;;;;;;;5020804;28;20198;-82
2022/01/02 22:51:00;;;;;;;2.47;1.63;;;;;;;;;;5018835;28;20205;-84
2022/01/02 22:53:35;;;;;;;3.57;1.60;;;;;;;;;;5018934;28;20213;-85
2022/01/02 22:59:23;;;;;;;5.60;1.90;;;;;;;;;;4925797;29;20225;-84
2022/01/02 23:02:08;;;;;;;3.93;1.80;;;;;;;;;;4939715;29;20212;-82
2022/01/02 23:04:36;;;;;;;5.13;1.73;;;;;;;;;;4939280;29;20277;-84
2022/01/02 23:07:26;;;;;;;1.70;1.60;;;;;;;;;;4939226;29;20215;-83
2022/01/02 23:10:00;;;;;;;2.83;2.10;;;;;;;;;;4926492;29;20233;-83
2022/01/02 23:12:49;;;;;;;4.27;2.00;;;;;;;;;;4939390;29;20216;-84
2022/01/02 23:15:17;;;;;;;4.53;1.70;;;;;;;;;;4927483;29;20215;-84
2022/01/02 23:17:46;;;;;;;3.33;2.00;;;;;;;;;;4941543;28;20220;-83
2022/01/02 23:20:13;;;;;;;4.23;1.90;;;;;;;;;;5016053;28;20242;-83
2022/01/02 23:22:41;;;;;;;3.63;1.63;;;;;;;;;;5018353;28;20280;-83
2022/01/02 23:25:22;;;;;;;6.07;2.40;;;;;;;;;;5020175;28;20214;-84
2022/01/02 23:27:51;;;;;;;7.67;3.60;;;;;;;;;;5019865;28;20260;-83
2022/01/02 23:30:25;;;;;;;2.70;1.73;;;;;;;;;;5018232;28;20215;-83
2022/01/02 23:32:55;;;;;;;5.07;2.30;;;;;;;;;;5019921;28;20268;-83
2022/01/02 23:35:28;;;;;;;5.27;2.47;;;;;;;;;;5020239;28;20217;-83
2022/01/02 23:37:57;;;;;;;2.90;1.70;;;;;;;;;;5019019;28;20203;-80
2022/01/02 23:40:26;;;;;;;2.87;1.80;;;;;;;;;;5018014;28;20218;-80
2022/01/02 23:43:04;;;;;;;3.47;2.10;;;;;;;;;;5011728;28;20206;-83
2022/01/02 23:45:40;;;;;;;2.27;1.53;;;;;;;;;;5015809;28;20225;-84
2022/01/02 23:48:10;;;;;;;4.50;1.60;;;;;;;;;;5027623;28;20206;-84
2022/01/02 23:50:42;;;;;;;1.93;1.33;;;;;;;;;;5016324;28;20206;-83
2022/01/02 23:53:30;;;;;;;;;;;;;;;;;;;;;
2022/01/02 23:56:06;;;;;;;4.27;1.80;;;;;;;;;;5017294;28;20210;-80
2022/01/02 23:58:37;;;;;;;3.73;1.57;;;;;;;;;;5019146;28;20226;-82
